Time;durP1;ratioP1;P1;durP2;ratioP2;P2;SDS_P1;SDS_P2;PMS_P1;PMS_P2;Temp;Humidity;BMP_temperature;BMP_pressure;BME280_temperature;BME280_humidity;BME280_pressure;Samples;Min_cycle;Max_cycle;Signal;HPM_P1;HPM_P2
2023/06/11 00:00:29;;;;;;;6.20;3.75;;;;;;;29.10;62.70;100664.09;5108019;27;66305;-42
2023/06/11 00:03:01;;;;;;;10.35;4.05;;;;;;;28.87;62.79;100633.00;5104651;27;70372;-44
2023/06/11 00:05:32;;;;;;;5.82;3.88;;;;;;;29.16;63.29;100679.44;5108416;27;66811;-43
2023/06/11 00:08:04;;;;;;;6.63;3.38;;;;;;;29.12;63.37;100667.44;5107155;27;70153;-43
2023/06/11 00:10:35;;;;;;;9.43;3.70;;;;;;;29.24;63.03;100681.91;5107953;27;66905;-43
2023/06/11 00:13:07;;;;;;;15.77;4.07;;;;;;;29.27;63.49;100681.47;5107892;27;68960;-43
2023/06/11 00:15:38;;;;;;;4.20;3.75;;;;;;;29.23;63.65;100674.88;5113301;27;66000;-45
2023/06/11 00:18:10;;;;;;;4.37;3.63;;;;;;;29.28;63.69;100672.34;5108482;27;69976;-43
2023/06/11 00:20:42;;;;;;;4.63;3.58;;;;;;;29.05;63.31;100634.22;5105475;27;66134;-43
2023/06/11 00:23:13;;;;;;;;;;;;;;;29.20;64.04;100688.81;5109993;27;70079;-43
2023/06/11 00:25:44;;;;;;;5.63;3.42;;;;;;;29.38;63.60;100683.50;5105015;27;65958;-44
2023/06/11 00:28:20;;;;;;;9.07;2.83;;;;;;;29.46;64.05;100685.16;5102321;27;70121;-44
2023/06/11 00:30:52;;;;;;;4.18;3.58;;;;;;;29.42;63.91;100666.88;5111536;27;65419;-44
2023/06/11 00:33:23;;;;;;;4.18;3.10;;;;;;;29.54;64.91;100682.19;5109320;27;70295;-44
2023/06/11 00:35:54;;;;;;;7.63;3.45;;;;;;;29.60;67.17;100685.91;5113614;27;66779;-43
2023/06/11 00:38:26;;;;;;;11.70;3.50;;;;;;;29.50;68.60;100655.81;5112755;27;69475;-44
2023/06/11 00:40:57;;;;;;;9.63;4.40;;;;;;;29.58;69.64;100666.38;5113860;27;66006;-44
2023/06/11 00:43:30;;;;;;;13.23;4.70;;;;;;;29.69;70.89;100679.22;5113876;27;70241;-42
2023/06/11 00:46:02;;;;;;;8.27;4.72;;;;;;;29.60;71.19;100653.47;5111907;27;66187;-43
2023/06/11 00:48:33;;;;;;;3.80;3.50;;;;;;;29.74;67.76;100676.69;5108016;27;70493;-43
2023/06/11 00:51:05;;;;;;;7.53;4.22;;;;;;;29.86;67.88;100705.75;5112907;27;66094;-43
2023/06/11 00:53:36;;;;;;;4.45;4.15;;;;;;;29.75;68.31;100675.66;5104240;27;69973;-43
2023/06/11 00:56:08;;;;;;;6.35;4.90;;;;;;;29.89;69.02;100691.78;5115477;27;66592;-42
2023/06/11 00:58:39;;;;;;;5.55;4.25;;;;;;;29.95;68.93;100699.03;5114750;27;71049;-43
2023/06/11 01:01:15;;;;;;;5.57;4.53;;;;;;;29.97;69.57;100696.94;5105432;27;66491;-44
2023/06/11 01:03:52;;;;;;;6.80;4.53;;;;;;;30.02;69.89;100702.53;5123892;27;70534;-44
2023/06/11 01:06:28;;;;;;;4.25;3.85;;;;;;;29.88;70.10;100669.34;5115477;27;66606;-44
2023/06/11 01:09:01;;;;;;;8.13;3.90;;;;;;;30.12;70.55;100699.34;5113902;27;69594;-44
2023/06/11 01:11:35;;;;;;;3.88;3.50;;;;;;;30.09;70.89;100694.34;5103459;27;65598;-44
2023/06/11 01:14:13;;;;;;;4.28;3.58;;;;;;;30.15;70.58;100694.31;5087633;27;70355;-43
2023/06/11 01:17:17;;;;;;;4.20;3.80;;;;;;;28.56;72.02;100436.72;5104550;27;66226;-44
2023/06/11 01:20:14;;;;;;;5.20;3.80;;;;;;;28.57;73.62;100437.53;5108479;27;71479;-44
2023/06/11 01:23:14;;;;;;;4.03;3.70;;;;;;;30.22;72.45;100692.41;5109132;27;66675;-43
2023/06/11 01:26:15;;;;;;;4.47;4.07;;;;;;;30.16;73.16;100706.78;5105621;27;70164;-44
2023/06/11 01:28:49;;;;;;;4.65;3.58;;;;;;;30.31;71.70;100702.97;5079553;27;65203;-43
2023/06/11 01:31:25;;;;;;;4.03;3.72;;;;;;;29.67;71.67;100584.03;5120005;27;69449;-43
2023/06/11 01:33:57;;;;;;;4.38;3.65;;;;;;;29.62;71.14;100573.81;5122061;27;65496;-42
2023/06/11 01:36:36;;;;;;;7.65;4.10;;;;;;;30.25;74.28;100672.19;5112133;27;69469;-42
2023/06/11 01:39:09;;;;;;;7.40;4.45;;;;;;;30.20;74.57;100648.50;5098722;27;65424;-42
2023/06/11 01:41:58;;;;;;;7.28;4.32;;;;;;;30.43;74.52;100685.78;5102517;27;70118;-42
2023/06/11 01:44:32;;;;;;;6.10;3.85;;;;;;;30.44;74.62;100678.50;5106675;27;66304;-40
2023/06/11 01:47:03;;;;;;;8.43;4.07;;;;;;;30.28;74.89;100653.66;5103928;27;70266;-46
2023/06/11 01:49:35;;;;;;;9.25;3.97;;;;;;;30.48;74.84;100685.94;5088497;27;65926;-46
2023/06/11 01:52:07;;;;;;;7.30;4.05;;;;;;;30.24;74.87;100638.91;5107666;27;69258;-41
2023/06/11 01:54:38;;;;;;;5.93;4.35;;;;;;;30.42;75.39;100661.63;5110080;27;66082;-43
2023/06/11 01:57:09;;;;;;;3.75;3.45;;;;;;;30.33;73.54;100630.50;5110280;27;70017;-44
2023/06/11 01:59:41;;;;;;;3.17;2.90;;;;;;;30.58;73.02;100677.31;5111354;27;68155;-44
2023/06/11 02:02:12;;;;;;;3.07;2.77;;;;;;;30.41;72.71;100643.75;5120032;27;69861;-44
2023/06/11 02:04:44;;;;;;;3.25;2.95;;;;;;;30.40;72.55;100642.13;5114287;27;66490;-44
2023/06/11 02:07:15;;;;;;;4.35;3.15;;;;;;;30.64;72.22;100681.81;5109637;27;70360;-43
2023/06/11 02:09:46;;;;;;;2.57;2.37;;;;;;;30.68;72.12;100677.63;5111423;27;66760;-42
2023/06/11 02:12:18;;;;;;;3.08;2.63;;;;;;;30.71;71.60;100665.53;5106560;27;69664;-44
2023/06/11 02:14:49;;;;;;;3.30;2.60;;;;;;;30.73;71.89;100675.09;5130962;27;66496;-43
2023/06/11 02:17:21;;;;;;;;;;;;;;;30.47;73.47;100668.03;5109943;27;70049;-43
2023/06/11 02:19:52;;;;;;;2.63;2.42;;;;;;;30.76;71.79;100662.97;5111388;27;65390;-43
2023/06/11 02:22:24;;;;;;;3.13;2.80;;;;;;;30.76;71.06;100651.31;5115002;27;70037;-43
2023/06/11 02:24:55;;;;;;;2.67;2.47;;;;;;;30.81;71.10;100665.84;5113586;27;66012;-43
2023/06/11 02:27:27;;;;;;;5.05;2.75;;;;;;;30.81;71.23;100654.19;5108144;27;70144;-45
2023/06/11 02:30:00;;;;;;;4.30;2.30;;;;;;;30.90;71.29;100666.41;5105584;27;66431;-43
2023/06/11 02:32:32;;;;;;;2.40;2.17;;;;;;;30.85;71.36;100645.41;5107223;27;69633;-44
2023/06/11 02:35:03;;;;;;;4.13;2.63;;;;;;;30.90;70.65;100661.81;5115185;27;66420;-43
2023/06/11 02:37:36;;;;;;;2.50;2.30;;;;;;;30.89;70.67;100643.06;5117453;27;69877;-45
2023/06/11 02:40:08;;;;;;;3.97;2.45;;;;;;;30.94;70.66;100648.63;5108233;27;66376;-43
2023/06/11 02:42:41;;;;;;;5.07;2.38;;;;;;;31.02;70.73;100664.59;5108607;27;69614;-44
2023/06/11 02:45:12;;;;;;;5.30;2.10;;;;;;;30.94;70.76;100640.50;5102584;27;65315;-43
2023/06/11 02:47:43;;;;;;;2.60;2.17;;;;;;;31.07;70.29;100658.50;5114355;27;70172;-43
2023/06/11 02:50:15;;;;;;;2.20;1.77;;;;;;;31.09;70.35;100646.38;5107221;27;65296;-44
2023/06/11 02:52:46;;;;;;;1.57;1.47;;;;;;;30.95;70.17;100617.78;5100948;27;69750;-43
2023/06/11 02:55:17;;;;;;;2.25;1.85;;;;;;;31.00;70.22;100619.81;5113440;27;66527;-44
2023/06/11 02:57:49;;;;;;;2.57;1.90;;;;;;;31.16;70.07;100636.28;5110673;27;70572;-43
2023/06/11 03:00:20;;;;;;;2.15;1.73;;;;;;;31.18;70.05;100627.94;5107311;27;66259;-46
2023/06/11 03:02:52;;;;;;;2.05;1.80;;;;;;;31.17;70.12;100620.84;5108718;27;69896;-44
2023/06/11 03:05:29;;;;;;;1.60;1.38;;;;;;;31.26;69.81;100624.91;5102276;27;65521;-43
2023/06/11 03:08:01;;;;;;;1.75;1.65;;;;;;;31.09;69.77;100594.06;5108733;27;70499;-46
2023/06/11 03:10:33;;;;;;;3.20;2.13;;;;;;;31.25;69.51;100608.84;5106326;27;66529;-46
2023/06/11 03:13:04;;;;;;;5.22;1.77;;;;;;;31.22;69.49;100606.63;5110499;27;70108;-45
2023/06/11 03:15:36;;;;;;;2.28;1.30;;;;;;;31.25;69.49;100606.16;5103658;27;66629;-43
2023/06/11 03:18:07;;;;;;;2.05;1.85;;;;;;;31.34;69.44;100604.75;5105362;27;69883;-44
2023/06/11 03:20:41;;;;;;;1.95;1.30;;;;;;;30.78;68.78;100500.28;5097574;27;65972;-45
2023/06/11 03:23:13;;;;;;;;;;;;;;;31.15;69.74;100610.25;5093895;27;69323;-45
2023/06/11 03:25:45;;;;;;;;;;;;;;;31.14;69.82;100611.28;5110090;27;66626;-43
2023/06/11 03:28:17;;;;;;;1.50;1.40;;;;;;;31.41;69.01;100616.38;5102567;27;68382;-44
2023/06/11 03:30:49;;;;;;;1.70;1.17;;;;;;;31.45;68.36;100614.84;5105544;27;65795;-46
2023/06/11 03:33:20;;;;;;;1.85;1.63;;;;;;;31.50;68.39;100615.00;5109204;27;70572;-47
2023/06/11 03:35:51;;;;;;;4.50;1.42;;;;;;;31.54;68.29;100599.94;5108503;27;65167;-44
2023/06/11 03:38:26;;;;;;;2.08;1.33;;;;;;;31.54;68.58;100590.97;5106123;27;70046;-43
2023/06/11 03:40:58;;;;;;;2.38;1.10;;;;;;;31.58;68.16;100595.69;5109447;27;66118;-45
2023/06/11 03:43:33;;;;;;;2.08;1.23;;;;;;;31.58;68.38;100582.13;5107448;27;70170;-42
2023/06/11 03:46:04;;;;;;;2.50;1.50;;;;;;;31.47;68.16;100566.66;5104617;27;66794;-45
2023/06/11 03:48:36;;;;;;;1.98;1.77;;;;;;;31.60;68.23;100571.88;5108477;27;69939;-43
2023/06/11 03:51:08;;;;;;;4.30;1.98;;;;;;;31.51;68.21;100567.00;5103542;27;66493;-42
2023/06/11 03:53:39;;;;;;;4.40;2.00;;;;;;;31.53;68.66;100565.72;5101083;27;69690;-42
2023/06/11 03:56:11;;;;;;;10.63;2.90;;;;;;;31.49;69.40;100559.13;5111153;27;66207;-43
2023/06/11 03:58:42;;;;;;;11.38;2.13;;;;;;;31.48;69.22;100562.06;5112115;27;70219;-44
2023/06/11 04:01:14;;;;;;;5.93;2.03;;;;;;;31.16;69.37;100510.81;5088485;27;66729;-44
2023/06/11 04:03:45;;;;;;;7.75;2.80;;;;;;;31.51;69.32;100554.31;5105046;27;69908;-42
2023/06/11 04:06:18;;;;;;;5.18;2.58;;;;;;;31.50;69.33;100559.94;5100695;27;65473;-45
2023/06/11 04:08:50;;;;;;;4.28;2.38;;;;;;;31.34;69.97;100534.28;5096107;27;70264;-43
2023/06/11 04:11:22;;;;;;;6.68;2.55;;;;;;;31.40;69.73;100536.13;5111693;27;66539;-43
2023/06/11 04:13:53;;;;;;;5.40;2.55;;;;;;;31.13;69.71;100489.59;5107332;27;68866;-46
2023/06/11 04:16:25;;;;;;;10.90;2.57;;;;;;;31.52;69.73;100558.66;5107528;27;66484;-43
2023/06/11 04:18:56;;;;;;;2.88;1.98;;;;;;;31.45;69.28;100540.84;5109863;27;70332;-44
2023/06/11 04:21:29;;;;;;;4.15;1.90;;;;;;;31.65;68.81;100554.06;5100293;27;65164;-44
2023/06/11 04:24:00;;;;;;;3.80;1.60;;;;;;;31.73;68.66;100559.16;5109324;27;70475;-43
2023/06/11 04:26:36;;;;;;;3.72;1.10;;;;;;;31.63;68.68;100526.38;5100154;27;66359;-44
2023/06/11 04:29:08;;;;;;;2.30;1.30;;;;;;;31.64;68.40;100512.59;5110642;27;70187;-44
2023/06/11 04:31:46;;;;;;;2.55;1.42;;;;;;;31.77;68.38;100534.06;5107456;27;66224;-44
2023/06/11 04:34:20;;;;;;;3.40;1.65;;;;;;;31.89;67.99;100539.47;5098845;27;70051;-42
2023/06/11 04:36:53;;;;;;;4.07;1.48;;;;;;;31.91;68.03;100539.25;5104950;27;65642;-43
2023/06/11 04:39:25;;;;;;;1.58;1.20;;;;;;;31.86;68.14;100520.16;5105435;27;70478;-44
2023/06/11 04:41:58;;;;;;;2.55;1.38;;;;;;;31.88;67.85;100523.47;5105081;27;65091;-43
2023/06/11 04:44:31;;;;;;;2.30;1.75;;;;;;;31.87;67.77;100511.75;5102045;27;69643;-43
2023/06/11 04:47:06;;;;;;;2.65;1.60;;;;;;;32.03;67.66;100535.50;5105987;27;66744;-42
2023/06/11 04:49:40;;;;;;;3.03;1.73;;;;;;;31.81;67.68;100496.44;5109165;27;70493;-44
2023/06/11 04:52:11;;;;;;;;;;;;;;;31.78;68.07;100526.75;5111392;27;66651;-45
2023/06/11 04:54:45;;;;;;;6.68;2.40;;;;;;;32.00;67.18;100537.88;5106813;27;69062;-45
2023/06/11 04:57:16;;;;;;;8.95;2.28;;;;;;;31.97;67.02;100531.03;5103238;27;66638;-43
2023/06/11 04:59:49;;;;;;;7.50;2.13;;;;;;;31.53;65.00;100473.56;5108489;27;70229;-41
2023/06/11 05:02:22;;;;;;;8.07;2.00;;;;;;;31.62;63.31;100511.97;5105523;27;65339;-42
2023/06/11 05:04:54;;;;;;;3.80;1.58;;;;;;;31.52;61.58;100509.03;5110810;27;70006;-42
2023/06/11 05:07:26;;;;;;;7.00;1.98;;;;;;;31.37;60.09;100501.34;5103176;27;65741;-43
2023/06/11 05:09:59;;;;;;;5.00;1.75;;;;;;;31.30;59.36;100495.19;5101444;27;70605;-43
2023/06/11 05:12:32;;;;;;;4.13;2.00;;;;;;;31.24;58.47;100506.97;5100755;27;65631;-44
2023/06/11 05:15:04;;;;;;;9.48;1.60;;;;;;;30.49;57.11;100397.16;5108496;27;70901;-43
2023/06/11 05:17:37;;;;;;;9.07;1.50;;;;;;;31.08;56.83;100503.84;5104857;27;65615;-43
2023/06/11 05:20:09;;;;;;;6.22;1.90;;;;;;;31.01;56.74;100511.25;5106601;27;70684;-44
2023/06/11 05:22:41;;;;;;;6.95;1.48;;;;;;;30.92;56.08;100488.22;5106926;27;66213;-45
2023/06/11 05:25:19;;;;;;;6.97;1.80;;;;;;;30.82;55.23;100482.56;5106881;27;69005;-43
2023/06/11 05:27:53;;;;;;;5.55;1.80;;;;;;;30.68;54.22;100461.03;5106471;27;66682;-44
2023/06/11 05:30:25;;;;;;;5.95;1.15;;;;;;;30.76;55.33;100483.41;5104222;27;69851;-44
2023/06/11 05:32:58;;;;;;;4.15;1.60;;;;;;;30.71;54.75;100495.78;5102137;27;65828;-42
2023/06/11 05:35:30;;;;;;;6.95;1.98;;;;;;;30.71;54.32;100476.81;5098023;27;70262;-43
2023/06/11 05:38:09;;;;;;;9.50;1.48;;;;;;;30.68;54.15;100488.13;5102874;27;66251;-44
2023/06/11 05:40:42;;;;;;;4.95;1.48;;;;;;;30.66;53.77;100473.16;5112826;27;69623;-43
2023/06/11 05:43:14;;;;;;;8.73;1.58;;;;;;;30.59;53.37;100466.97;5101048;27;66035;-44
2023/06/11 05:45:49;;;;;;;5.97;1.23;;;;;;;30.39;52.58;100448.31;5103594;27;69845;-44
2023/06/11 05:48:22;;;;;;;4.90;1.38;;;;;;;30.54;52.15;100464.97;5104038;27;66493;-45
2023/06/11 05:50:53;;;;;;;9.03;1.53;;;;;;;30.48;51.96;100447.78;5102705;27;70679;-42
2023/06/11 05:53:26;;;;;;;2.70;1.55;;;;;;;30.47;51.30;100454.22;5099971;27;66860;-44
2023/06/11 05:56:04;;;;;;;3.03;1.58;;;;;;;30.26;51.45;100409.53;5108069;27;69419;-42
2023/06/11 05:58:38;;;;;;;2.85;1.15;;;;;;;30.49;50.95;100445.88;5109611;27;65740;-43
2023/06/11 06:01:12;;;;;;;1.58;1.13;;;;;;;30.50;51.31;100450.25;5124440;27;70920;-43
2023/06/11 06:03:44;;;;;;;3.17;1.15;;;;;;;30.21;50.38;100395.84;5108685;27;66637;-43
2023/06/11 06:06:16;;;;;;;1.95;1.33;;;;;;;30.51;50.87;100441.09;5106247;27;70024;-43
2023/06/11 06:08:47;;;;;;;;;;;;;;;30.36;51.01;100440.63;5108999;27;66410;-44
2023/06/11 06:11:19;;;;;;;3.63;1.10;;;;;;;30.36;50.04;100402.75;5108292;27;70231;-42
2023/06/11 06:13:50;;;;;;;1.30;1.00;;;;;;;30.56;50.04;100430.38;5110077;27;66036;-45
2023/06/11 06:16:22;;;;;;;5.68;1.35;;;;;;;30.38;49.92;100392.53;5112307;27;69985;-42
2023/06/11 06:19:00;;;;;;;5.03;1.10;;;;;;;30.42;49.20;100388.31;5110844;27;65103;-43
2023/06/11 06:21:32;;;;;;;3.57;1.10;;;;;;;30.56;49.23;100424.97;5105274;27;69700;-42
2023/06/11 06:24:04;;;;;;;2.58;1.40;;;;;;;30.58;48.66;100416.63;5111424;27;66808;-45
2023/06/11 06:26:40;;;;;;;1.83;0.80;;;;;;;30.59;48.48;100413.69;5105209;27;69250;-45
2023/06/11 06:29:15;;;;;;;1.63;0.90;;;;;;;30.56;47.80;100408.72;5103553;27;66621;-44
2023/06/11 06:31:46;;;;;;;1.95;0.80;;;;;;;30.33;47.84;100376.16;5109742;27;69762;-42
2023/06/11 06:34:19;;;;;;;1.05;0.95;;;;;;;30.50;48.19;100409.63;5112018;27;66311;-45
2023/06/11 06:36:50;;;;;;;2.63;1.00;;;;;;;30.38;47.72;100385.25;5107812;27;69516;-43
2023/06/11 06:39:22;;;;;;;2.58;0.90;;;;;;;30.42;48.26;100380.19;5118630;27;66828;-43
2023/06/11 06:41:54;;;;;;;2.30;0.82;;;;;;;30.48;47.64;100382.00;5099074;27;70012;-44
2023/06/11 06:44:37;;;;;;;1.40;0.95;;;;;;;30.32;47.53;100358.28;5105149;27;66791;-44
2023/06/11 06:47:09;;;;;;;2.33;1.17;;;;;;;30.53;47.57;100381.28;5104181;27;71399;-44
2023/06/11 06:49:41;;;;;;;2.13;1.00;;;;;;;30.50;46.99;100366.34;5109635;27;66223;-43
2023/06/11 06:52:12;;;;;;;4.80;1.25;;;;;;;30.51;47.08;100359.88;5094645;27;69581;-44
2023/06/11 06:54:44;;;;;;;4.72;0.95;;;;;;;30.48;47.28;100360.34;5107744;27;65327;-42
2023/06/11 06:57:17;;;;;;;6.88;0.80;;;;;;;30.54;46.66;100350.47;5103915;27;68113;-45
2023/06/11 06:59:49;;;;;;;6.03;1.00;;;;;;;30.55;47.02;100352.94;5110654;27;66202;-45
2023/06/11 07:02:20;;;;;;;2.45;0.75;;;;;;;30.46;46.88;100338.09;5108531;27;69838;-43
2023/06/11 07:04:52;;;;;;;1.70;0.90;;;;;;;30.59;46.44;100348.72;5113505;27;65235;-44
2023/06/11 07:07:24;;;;;;;3.97;0.77;;;;;;;30.60;46.97;100344.97;5107509;27;70136;-45
2023/06/11 07:09:55;;;;;;;1.85;0.93;;;;;;;30.01;46.24;100243.81;5106223;27;66848;-46
2023/06/11 07:12:27;;;;;;;11.73;1.10;;;;;;;30.62;46.02;100329.31;5103807;27;69819;-46
2023/06/11 07:14:59;;;;;;;4.40;0.93;;;;;;;30.64;46.62;100324.47;5102087;27;66285;-45
2023/06/11 07:17:32;;;;;;;3.63;0.90;;;;;;;30.67;46.10;100320.47;5107609;27;69886;-43
2023/06/11 07:20:07;;;;;;;9.13;1.10;;;;;;;30.68;46.11;100314.84;5107377;27;65868;-42
2023/06/11 07:22:40;;;;;;;1.85;0.85;;;;;;;30.44;45.95;100269.84;5109035;27;70600;-44
2023/06/11 07:25:12;;;;;;;2.00;0.98;;;;;;;30.39;45.78;100261.59;5105861;27;66362;-42
2023/06/11 07:27:43;;;;;;;5.78;0.77;;;;;;;30.67;46.12;100291.56;5124923;27;70423;-42
2023/06/11 07:30:15;;;;;;;6.18;1.17;;;;;;;30.68;46.42;100287.78;5113876;27;65455;-42
2023/06/11 07:32:47;;;;;;;17.98;2.30;;;;;;;30.87;57.20;100284.97;5101489;27;69780;-44
2023/06/11 07:35:22;;;;;;;9.73;2.20;;;;;;;31.15;61.40;100284.31;5107414;27;65777;-43
2023/06/11 07:37:55;;;;;;;13.40;2.53;;;;;;;31.36;61.97;100272.03;5105767;27;69273;-42
2023/06/11 07:40:27;;;;;;;7.18;2.47;;;;;;;31.48;58.68;100259.31;5090108;27;65995;-43
2023/06/11 07:42:59;;;;;;;4.95;1.70;;;;;;;31.69;58.96;100270.56;5108245;27;70450;-43
2023/06/11 07:45:32;;;;;;;3.88;1.50;;;;;;;31.87;58.87;100273.06;5105779;27;66241;-42
2023/06/11 07:48:05;;;;;;;4.55;2.15;;;;;;;31.94;58.44;100256.72;5105358;27;70107;-43
2023/06/11 07:50:37;;;;;;;4.05;1.27;;;;;;;32.12;58.69;100270.06;5112312;27;66585;-43
2023/06/11 07:53:12;;;;;;;3.95;1.75;;;;;;;32.12;58.57;100263.81;5114990;27;69738;-42
2023/06/11 07:55:44;;;;;;;5.63;1.20;;;;;;;32.25;58.92;100258.09;5107283;27;66284;-42
2023/06/11 07:58:16;;;;;;;2.80;1.30;;;;;;;32.39;59.07;100261.31;5112510;27;69431;-42
2023/06/11 08:00:48;;;;;;;1.60;1.13;;;;;;;32.46;58.95;100257.41;5107880;27;67524;-42
2023/06/11 08:03:19;;;;;;;4.72;1.30;;;;;;;32.47;58.90;100261.75;5105747;27;70224;-43
2023/06/11 08:05:50;;;;;;;2.13;1.52;;;;;;;32.59;58.90;100264.38;5107189;27;66452;-44
2023/06/11 08:08:22;;;;;;;2.45;1.88;;;;;;;32.64;58.75;100261.75;5102586;27;70246;-44
2023/06/11 08:10:56;;;;;;;3.35;1.40;;;;;;;32.70;58.92;100260.75;5102107;27;65873;-43
2023/06/11 08:13:34;;;;;;;1.52;0.93;;;;;;;32.70;59.38;100251.78;5104759;27;70036;-42
2023/06/11 08:16:06;;;;;;;2.92;1.25;;;;;;;32.75;58.76;100257.31;5110812;27;66834;-43
2023/06/11 08:18:37;;;;;;;2.15;1.20;;;;;;;32.82;59.00;100274.28;5104271;27;69719;-42
2023/06/11 08:21:08;;;;;;;2.05;1.35;;;;;;;32.87;58.68;100277.03;5107856;27;66463;-42
2023/06/11 08:23:40;;;;;;;3.47;1.33;;;;;;;32.92;59.12;100289.88;5107368;27;69306;-43
2023/06/11 08:26:12;;;;;;;3.13;1.30;;;;;;;32.94;58.94;100280.44;5101252;27;66314;-42
2023/06/11 08:28:45;;;;;;;3.53;1.33;;;;;;;32.99;59.02;100295.16;5107794;27;69952;-42
2023/06/11 08:31:16;;;;;;;3.70;1.40;;;;;;;32.99;58.99;100289.72;5102090;27;65993;-42
2023/06/11 08:33:48;;;;;;;3.15;1.23;;;;;;;33.04;59.06;100308.84;5104575;27;70264;-42
2023/06/11 08:36:21;;;;;;;1.85;1.27;;;;;;;33.06;59.25;100320.28;5115794;27;65633;-43
2023/06/11 08:38:52;;;;;;;1.52;1.20;;;;;;;32.96;59.38;100268.47;5107184;27;69222;-42
2023/06/11 08:41:31;;;;;;;4.18;1.60;;;;;;;32.44;59.13;100191.63;5102936;27;67203;-42
2023/06/11 08:44:03;;;;;;;3.90;1.15;;;;;;;33.13;59.23;100301.94;5104264;27;69664;-42
2023/06/11 08:46:36;;;;;;;1.67;1.17;;;;;;;33.07;58.96;100309.19;5101322;27;65392;-46
2023/06/11 08:49:08;;;;;;;2.85;0.90;;;;;;;33.17;59.34;100313.94;5103921;27;70120;-42
2023/06/11 08:51:39;;;;;;;3.38;1.58;;;;;;;33.02;58.99;100283.84;5117299;27;66387;-42
2023/06/11 08:54:12;;;;;;;2.70;1.38;;;;;;;33.00;59.58;100273.22;5110478;27;69794;-44
2023/06/11 08:56:44;;;;;;;2.67;1.40;;;;;;;33.23;59.29;100304.78;5114479;27;65752;-46
2023/06/11 08:59:16;;;;;;;1.85;1.17;;;;;;;33.23;59.87;100307.50;5105281;27;70158;-43
2023/06/11 09:01:50;;;;;;;4.68;1.20;;;;;;;33.25;59.71;100310.78;5106968;27;65774;-44
2023/06/11 09:04:22;;;;;;;3.63;1.63;;;;;;;33.24;59.69;100309.16;5105335;27;70512;-44
2023/06/11 09:06:59;;;;;;;2.20;1.55;;;;;;;33.02;59.79;100295.53;5104580;27;66576;-44
2023/06/11 09:09:31;;;;;;;1.48;0.98;;;;;;;33.29;59.63;100339.13;5107823;27;70143;-43
2023/06/11 09:12:08;;;;;;;;;;;;;;;32.87;61.63;100353.09;5110285;27;66614;-43
2023/06/11 09:14:38;;;;;;;7.80;1.58;;;;;;;32.99;61.87;100360.34;5112532;27;69236;-42
2023/06/11 09:17:16;;;;;;;2.40;2.10;;;;;;;32.17;62.02;100240.31;5109784;27;66931;-45
2023/06/11 09:19:47;;;;;;;5.35;2.80;;;;;;;32.72;61.84;100331.13;5111472;27;70418;-44
2023/06/11 09:22:26;;;;;;;2.70;2.40;;;;;;;32.08;62.26;100240.97;5109282;27;66030;-42
2023/06/11 09:25:01;;;;;;;7.93;3.33;;;;;;;32.83;62.49;100362.00;5109935;27;69468;-47
2023/06/11 09:27:34;;;;;;;2.78;2.55;;;;;;;32.90;62.11;100368.94;5119664;27;66471;-44
2023/06/11 09:30:17;;;;;;;3.15;2.55;;;;;;;31.99;62.10;100226.97;5112833;27;70001;-45
2023/06/11 09:32:49;;;;;;;4.97;2.40;;;;;;;32.99;61.61;100371.22;5105582;27;66648;-43
2023/06/11 09:35:21;;;;;;;7.25;2.35;;;;;;;33.05;61.49;100364.84;5105359;27;70381;-43
2023/06/11 09:37:53;;;;;;;3.08;2.40;;;;;;;32.92;61.44;100334.19;5114931;27;66451;-44
2023/06/11 09:40:24;;;;;;;;;;;;;;;32.82;62.26;100350.34;5113710;27;69107;-44
2023/06/11 09:42:56;;;;;;;4.85;2.75;;;;;;;33.10;61.57;100351.34;5112581;27;66300;-43
2023/06/11 09:45:28;;;;;;;2.58;2.00;;;;;;;33.12;61.08;100346.47;5108588;27;70549;-41
2023/06/11 09:47:59;;;;;;;;;;;;;;;32.88;62.08;100359.38;5113028;27;65253;-44
2023/06/11 09:50:33;;;;;;;5.30;2.38;;;;;;;33.13;61.02;100359.81;5111741;27;71112;-42
2023/06/11 09:53:06;;;;;;;3.05;2.70;;;;;;;33.18;61.35;100369.09;5108005;27;66196;-43
2023/06/11 09:55:38;;;;;;;5.10;3.80;;;;;;;33.19;61.00;100366.16;5116423;27;69383;-43
2023/06/11 09:58:11;;;;;;;6.68;4.90;;;;;;;33.21;61.63;100374.91;5112958;27;66129;-42
2023/06/11 10:00:43;;;;;;;8.57;4.95;;;;;;;32.96;61.57;100325.53;5106496;27;70154;-46
2023/06/11 10:03:15;;;;;;;13.82;5.47;;;;;;;33.20;61.80;100373.22;5110764;27;66672;-43
2023/06/11 10:05:46;;;;;;;5.97;4.80;;;;;;;33.20;61.55;100394.97;5114469;27;69989;-43
2023/06/11 10:08:22;;;;;;;3.88;3.58;;;;;;;33.12;62.14;100376.34;5106897;27;66290;-43
2023/06/11 10:11:01;;;;;;;8.75;5.18;;;;;;;33.19;62.33;100409.66;5111994;27;70746;-42
2023/06/11 10:13:37;;;;;;;4.97;4.45;;;;;;;33.21;62.00;100404.78;5107453;27;66020;-43
2023/06/11 10:16:09;;;;;;;6.68;4.95;;;;;;;33.09;61.71;100395.88;5094807;27;69548;-44
2023/06/11 10:18:40;;;;;;;4.65;4.20;;;;;;;33.19;62.05;100415.06;5112295;27;66550;-41
2023/06/11 10:21:11;;;;;;;5.25;4.57;;;;;;;33.17;62.13;100411.78;5114536;27;69874;-43
2023/06/11 10:23:50;;;;;;;10.55;4.10;;;;;;;33.09;62.78;100404.03;5114077;27;66013;-45
2023/06/11 10:26:34;;;;;;;11.63;6.60;;;;;;;32.95;64.65;100408.94;5108838;27;70508;-42
2023/06/11 10:29:11;;;;;;;16.30;6.40;;;;;;;32.70;65.84;100399.25;5111224;27;65773;-44
2023/06/11 10:31:44;;;;;;;9.23;6.88;;;;;;;32.78;66.81;100424.38;5107681;27;69954;-43
2023/06/11 10:34:16;;;;;;;9.88;6.68;;;;;;;32.61;67.57;100414.31;5108951;27;66648;-42
2023/06/11 10:36:48;;;;;;;8.43;6.68;;;;;;;32.65;68.37;100428.22;5113128;27;70137;-43
2023/06/11 10:39:25;;;;;;;10.88;7.95;;;;;;;32.39;68.38;100397.84;5103841;27;65801;-43
2023/06/11 10:42:01;;;;;;;17.20;7.00;;;;;;;32.60;68.33;100434.41;5107114;27;70681;-43
2023/06/11 10:44:41;;;;;;;21.55;7.38;;;;;;;32.65;67.82;100437.22;5111592;27;66752;-44
2023/06/11 10:47:12;;;;;;;18.45;6.88;;;;;;;32.12;66.66;100356.06;5114913;27;69991;-42
2023/06/11 10:49:43;;;;;;;11.48;6.45;;;;;;;32.61;66.22;100397.19;5106076;27;66552;-43
2023/06/11 10:52:15;;;;;;;7.18;5.30;;;;;;;32.73;66.36;100411.53;5111525;27;68969;-46
2023/06/11 10:54:51;;;;;;;6.68;5.43;;;;;;;32.80;66.55;100439.38;5109396;27;65884;-44
2023/06/11 10:57:23;;;;;;;6.78;6.15;;;;;;;32.82;66.27;100437.25;5104601;27;69516;-42
2023/06/11 10:59:56;;;;;;;9.30;5.93;;;;;;;32.86;66.10;100454.69;5110149;27;65710;-42
2023/06/11 11:02:28;;;;;;;7.32;6.72;;;;;;;32.87;66.70;100452.78;5108291;27;69455;-45
2023/06/11 11:05:07;;;;;;;6.47;5.88;;;;;;;32.83;66.41;100454.38;5104839;27;66083;-42
2023/06/11 11:07:39;;;;;;;5.70;5.20;;;;;;;32.92;66.17;100470.00;5104525;27;70066;-44
2023/06/11 11:10:13;;;;;;;10.27;5.60;;;;;;;32.08;67.50;100355.72;5108158;27;65963;-43
2023/06/11 11:12:46;;;;;;;16.10;6.53;;;;;;;32.60;68.59;100482.47;5107551;27;70422;-41
2023/06/11 11:15:18;;;;;;;9.00;5.65;;;;;;;32.61;68.44;100478.66;5105586;27;65722;-41
2023/06/11 11:17:50;;;;;;;;;;;;;;;32.34;68.97;100479.19;5111322;27;70039;-41
2023/06/11 11:20:21;;;;;;;6.30;5.70;;;;;;;32.50;68.90;100480.34;5110389;27;66099;-41
2023/06/11 11:22:55;;;;;;;6.03;5.47;;;;;;;32.45;68.80;100481.03;5102551;27;69898;-44
2023/06/11 11:25:29;;;;;;;5.78;5.38;;;;;;;32.46;68.46;100482.72;5111167;27;66098;-41
2023/06/11 11:28:00;;;;;;;9.77;5.53;;;;;;;32.45;68.52;100478.31;5111046;27;70307;-42
2023/06/11 11:30:32;;;;;;;13.57;6.45;;;;;;;32.41;69.02;100479.88;5109888;27;66340;-41
2023/06/11 11:33:04;;;;;;;24.30;7.30;;;;;;;32.40;68.84;100494.53;5109565;27;69635;-44
2023/06/11 11:35:47;;;;;;;18.20;6.57;;;;;;;32.36;68.91;100520.50;5108808;27;66077;-41
2023/06/11 11:38:19;;;;;;;16.98;6.45;;;;;;;32.40;69.59;100515.41;5109469;27;69420;-45
2023/06/11 11:40:58;;;;;;;7.90;6.10;;;;;;;32.40;69.16;100521.69;5109294;27;66708;-42
2023/06/11 11:43:42;;;;;;;16.70;6.40;;;;;;;32.35;69.28;100524.28;5110058;27;69581;-42
2023/06/11 11:46:26;;;;;;;21.60;6.43;;;;;;;32.35;68.95;100524.28;5107793;27;66414;-40
2023/06/11 11:48:57;;;;;;;14.90;6.70;;;;;;;32.34;68.95;100528.03;5111746;27;69504;-40
2023/06/11 11:51:35;;;;;;;14.45;6.35;;;;;;;32.35;68.79;100532.41;5104184;27;65626;-45
2023/06/11 11:54:07;;;;;;;14.25;6.60;;;;;;;32.34;68.00;100532.66;5103411;27;69914;-41